Tar Heel, NC (28392)

9:13 PM EST op 26 februari 2017 (GMT -0500)
Tobermory (N.W. Bladen County) | | Change Station

Hoogte 140 ft 34.83 °N, 78.87 °W | Updated 23 seconds ago

Helder
Helder
35.4 °F
Voelt als 35 °F
N
0.0
Wind Variabel Wind van ZW

Vandaag
Hoog -- | Laag -- °F
--% Kans op neerslag
Gisteren
Hoog -- | Laag -- °F
Precip. -- inches
Druk 30.29 inches
Zicht 10.0 mijlen
Wolken Helder
Gevoelstemperatuur 35 °F
Dauwpunt 29 °F
Vochtigheid 78%
Neerslag 0.00 inches
Dikte sneeuw Niet beschikbaar.
6:47 AM 6:08 PM
Nieuwe maan, 0% visible
METAR KLBT 270154Z AUTO 00000KT 10SM CLR 04/01 A3028 RMK AO2 SLP255 T00440006 $
Druk 30.29 inches
Zicht 10.0 mijlen
Wolken Helder
Gevoelstemperatuur 35 °F
Dauwpunt 29 °F
Vochtigheid 78%
Neerslag 0.00 inches
Dikte sneeuw Niet beschikbaar.
6:47 AM 6:08 PM
Nieuwe maan, 0% visible
METAR KLBT 270154Z AUTO 00000KT 10SM CLR 04/01 A3028 RMK AO2 SLP255 T00440006 $

Get Your Daily Forecast Email!

Thanks for signing up!

Be on the lookout for a verification email in your inbox.

You'll start receiving the daily forecast at 8 AM.

×

10-Day Weather Forecast

Almanac

Astronomie

Feb. 26, 2017 Opkomst Ondergang
Werkelijke tijd
Burgerlijke schemering
Nautische schemering
Astronomische schemering
Maan
Golflengte van het zichtbare licht
Daglengte
Tomorrow will be .
, % of the Moon is Illuminated

Extremen vandaag

State Highs State Lows

Community

WunderPhotos

Upload Photos

1,962,540 foto’s ge-upload!

WunderBlog® & News

Nearby

Luchtkwaliteit

  Luchtkwaliteit LK-index Verontreinigende stof
Not available.

Dikte sneeuw

Station Depth Geometrische hoogte

Aardbevingen

Stad Distance Mag. Time & Date
Minimum magnitude displayed is 2.5.

Watertemperatuur langs de kust

Plaats Temperatuur

Stations

Nabije weerstations

Locatie station Temp. Gevoelstemperatuur Dauwpunt Vochtigheid Wind Precip. Hoogte Geactualiseerd Type
                   

Watches & Warnings

There are currently no watches in effect.